createdAt,value
2018-03-24T00:02:25.619Z,93.40
2018-03-24T00:05:01.450Z,93.60
2018-03-24T00:10:14.923Z,93.90
2018-03-24T00:12:49.037Z,93.90
2018-03-24T00:15:23.329Z,93.90
2018-03-24T00:17:58.418Z,93.80
2018-03-24T00:20:33.258Z,93.90
2018-03-24T00:23:10.683Z,94.20
2018-03-24T00:25:48.016Z,93.90
2018-03-24T00:28:25.726Z,93.90
2018-03-24T00:31:01.349Z,94.20
2018-03-24T00:33:38.218Z,94.20
2018-03-24T00:36:12.654Z,94.20
2018-03-24T00:39:10.580Z,94.20
2018-03-24T00:41:46.641Z,94.20
2018-03-24T00:44:23.055Z,94.10
2018-03-24T00:46:58.928Z,93.90
2018-03-24T00:49:32.967Z,93.80
2018-03-24T00:52:06.871Z,93.80
2018-03-24T00:54:41.766Z,93.90
2018-03-24T00:57:16.715Z,94.00
2018-03-24T00:59:51.277Z,94.20
2018-03-24T01:02:25.061Z,94.20
2018-03-24T01:04:59.993Z,94.20
2018-03-24T01:07:34.783Z,94.20
2018-03-24T01:10:10.332Z,94.20
2018-03-24T01:12:44.329Z,94.20
2018-03-24T01:15:19.808Z,94.10
2018-03-24T01:17:54.456Z,94.20
2018-03-24T01:20:31.508Z,94.00
2018-03-24T01:23:05.168Z,93.90
2018-03-24T01:25:40.717Z,93.90
2018-03-24T01:28:19.976Z,93.90
2018-03-24T01:30:53.779Z,94.20
2018-03-24T01:33:31.938Z,94.20
2018-03-24T01:36:05.585Z,94.20
2018-03-24T01:38:39.380Z,94.20
2018-03-24T01:41:13.969Z,94.20
2018-03-24T01:43:48.287Z,94.20
2018-03-24T01:46:22.938Z,94.20
2018-03-24T01:48:57.620Z,94.40
2018-03-24T01:51:31.310Z,94.60
2018-03-24T01:54:06.018Z,94.70
2018-03-24T01:56:40.351Z,94.80
2018-03-24T01:59:15.384Z,94.70
2018-03-24T02:01:49.041Z,94.50
2018-03-24T02:04:23.907Z,94.20
2018-03-24T02:06:58.504Z,94.20
2018-03-24T02:09:34.221Z,94.20
2018-03-24T02:12:12.288Z,94.20
2018-03-24T02:14:46.975Z,94.30
2018-03-24T02:17:22.014Z,94.40
2018-03-24T02:19:56.326Z,94.50
2018-03-24T02:22:31.370Z,94.50
2018-03-24T02:25:08.190Z,94.70
2018-03-24T02:27:44.096Z,94.80
2018-03-24T02:30:20.155Z,95.00
2018-03-24T02:32:54.988Z,95.20
2018-03-24T02:35:29.102Z,95.30
2018-03-24T02:38:03.251Z,95.40
2018-03-24T02:40:36.982Z,95.40
2018-03-24T02:43:11.247Z,95.60
2018-03-24T02:45:45.011Z,95.70
2018-03-24T02:48:19.023Z,95.80
2018-03-24T02:50:53.091Z,95.80
2018-03-24T02:53:30.389Z,95.90
2018-03-24T02:56:06.841Z,95.90
2018-03-24T02:58:42.838Z,96.00
2018-03-24T03:01:20.366Z,96.10
2018-03-24T03:03:55.225Z,96.10
2018-03-24T03:06:34.020Z,96.20
2018-03-24T03:09:10.800Z,96.20
2018-03-24T03:11:45.080Z,96.10
2018-03-24T03:14:19.808Z,96.20
2018-03-24T03:16:54.988Z,96.20
2018-03-24T03:19:29.504Z,96.30
2018-03-24T03:22:03.070Z,96.30
2018-03-24T03:24:37.352Z,96.40
2018-03-24T03:27:11.485Z,96.30
2018-03-24T03:29:46.247Z,96.30
2018-03-24T03:32:22.456Z,96.30
2018-03-24T03:34:57.569Z,96.20
2018-03-24T03:37:32.193Z,96.00
2018-03-24T03:40:07.582Z,96.00
2018-03-24T03:42:54.086Z,95.90
2018-03-24T03:45:29.153Z,95.80
2018-03-24T03:48:03.673Z,96.00
2018-03-24T03:50:39.210Z,96.10
2018-03-24T03:53:14.112Z,96.20
2018-03-24T03:55:48.788Z,96.20
2018-03-24T03:58:25.012Z,96.30
2018-03-24T04:00:59.438Z,96.30
2018-03-24T04:03:34.129Z,96.10
2018-03-24T04:06:11.115Z,96.10
2018-03-24T04:08:44.913Z,96.10
2018-03-24T04:11:18.652Z,96.00
2018-03-24T04:13:53.292Z,95.70
2018-03-24T04:16:29.065Z,95.70
2018-03-24T04:19:06.722Z,95.70
2018-03-24T04:21:41.382Z,95.70
2018-03-24T04:24:18.345Z,96.00
2018-03-24T04:26:53.336Z,96.10
2018-03-24T04:29:28.446Z,96.10
2018-03-24T04:32:07.045Z,96.10
2018-03-24T04:34:41.073Z,96.10
2018-03-24T04:40:20.654Z,96.20
2018-03-24T04:42:55.432Z,96.20
2018-03-24T04:45:30.809Z,96.20
2018-03-24T04:48:06.756Z,96.20
2018-03-24T04:50:40.981Z,96.20
2018-03-24T04:53:14.923Z,96.30
2018-03-24T04:55:50.688Z,96.30
2018-03-24T04:58:26.984Z,96.20
2018-03-24T05:03:42.621Z,96.40
2018-03-24T05:06:18.788Z,96.50
2018-03-24T05:08:52.847Z,96.70
2018-03-24T05:11:28.386Z,96.80
2018-03-24T05:14:04.733Z,96.80
2018-03-24T05:16:47.102Z,96.90
2018-03-24T05:19:22.140Z,97.00
2018-03-24T05:21:58.431Z,97.00
2018-03-24T05:24:38.584Z,97.10
2018-03-24T05:27:15.283Z,97.10
2018-03-24T05:29:48.940Z,97.20
2018-03-24T05:32:26.572Z,97.30
2018-03-24T05:35:01.865Z,97.30
2018-03-24T05:37:37.378Z,97.40
2018-03-24T05:40:14.458Z,97.30
2018-03-24T05:42:51.080Z,97.30
2018-03-24T05:45:26.530Z,97.40
2018-03-24T05:48:02.588Z,97.30
2018-03-24T05:50:37.679Z,97.30
2018-03-24T05:53:12.077Z,97.40
2018-03-24T05:55:50.462Z,97.30
2018-03-24T05:58:27.722Z,97.30
2018-03-24T06:01:03.327Z,97.30
2018-03-24T06:06:17.892Z,97.30
2018-03-24T06:08:53.148Z,97.40
2018-03-24T06:11:30.439Z,97.40
2018-03-24T06:14:08.010Z,97.20
2018-03-24T06:16:42.973Z,97.00
2018-03-24T06:19:18.713Z,96.90
2018-03-24T06:21:54.638Z,96.90
2018-03-24T06:24:28.328Z,96.60
2018-03-24T06:27:02.556Z,96.30
2018-03-24T06:29:38.253Z,96.20
2018-03-24T06:32:18.110Z,95.70
2018-03-24T06:34:53.412Z,95.50
2018-03-24T06:37:29.107Z,95.30
2018-03-24T06:40:04.693Z,95.20
2018-03-24T06:42:40.964Z,95.30
2018-03-24T06:45:17.624Z,95.10
2018-03-24T06:48:03.304Z,94.80
2018-03-24T06:50:39.625Z,94.10
2018-03-24T06:53:15.936Z,93.90
2018-03-24T06:55:50.929Z,93.80
2018-03-24T06:58:27.268Z,93.70
2018-03-24T07:01:02.190Z,93.70
2018-03-24T07:03:36.825Z,93.40
2018-03-24T07:08:50.514Z,92.70
2018-03-24T07:11:24.636Z,92.60
2018-03-24T07:13:58.384Z,92.90
2018-03-24T07:16:33.783Z,92.50
2018-03-24T07:19:11.453Z,92.30
2018-03-24T07:21:46.630Z,92.00
2018-03-24T07:24:22.278Z,91.60
2018-03-24T07:26:56.113Z,91.60
2018-03-24T07:29:31.465Z,91.60
2018-03-24T07:32:07.431Z,90.70
2018-03-24T07:34:42.239Z,90.70
2018-03-24T07:37:16.621Z,90.40
2018-03-24T07:39:55.406Z,90.10
2018-03-24T07:42:29.436Z,90.10
2018-03-24T07:45:04.133Z,87.90
2018-03-24T07:47:37.977Z,87.50
2018-03-24T07:50:15.088Z,86.40
2018-03-24T07:52:50.197Z,86.50
2018-03-24T07:55:24.029Z,84.10
2018-03-24T07:57:58.093Z,82.60
2018-03-24T08:00:32.728Z,80.70
2018-03-24T08:03:08.695Z,78.80
2018-03-24T08:05:46.221Z,78.80
2018-03-24T08:08:21.356Z,77.90
2018-03-24T08:10:55.053Z,78.00
2018-03-24T08:13:30.075Z,77.10
2018-03-24T08:16:04.521Z,76.40
2018-03-24T08:18:38.417Z,75.50
2018-03-24T08:21:12.184Z,73.70
2018-03-24T08:23:48.372Z,74.10
2018-03-24T08:26:23.510Z,72.50
2018-03-24T08:28:58.524Z,72.30
2018-03-24T08:31:32.369Z,71.30
2018-03-24T08:34:07.380Z,70.10
2018-03-24T08:36:41.920Z,68.00
2018-03-24T08:39:17.528Z,69.10
2018-03-24T08:41:51.628Z,68.20
2018-03-24T08:44:25.357Z,65.90
2018-03-24T08:46:59.743Z,63.40
2018-03-24T08:49:33.451Z,61.80
2018-03-24T08:52:07.214Z,60.00
2018-03-24T08:54:42.661Z,58.20
2018-03-24T08:57:16.470Z,58.10
2018-03-24T08:59:50.332Z,56.40
2018-03-24T09:02:24.355Z,54.90
2018-03-24T09:05:05.060Z,52.20
2018-03-24T09:07:39.464Z,50.80
2018-03-24T09:10:13.945Z,50.80
2018-03-24T09:12:47.966Z,48.70
2018-03-24T09:15:21.657Z,45.90
2018-03-24T09:17:56.213Z,44.80
2018-03-24T09:20:31.722Z,42.90
2018-03-24T09:23:06.657Z,39.90
2018-03-24T09:25:40.572Z,35.70
2018-03-24T09:28:14.377Z,35.10
2018-03-24T09:30:50.633Z,34.20
2018-03-24T09:33:25.497Z,32.90
2018-03-24T09:36:01.081Z,31.20
2018-03-24T09:38:38.347Z,31.10
2018-03-24T09:41:13.779Z,28.40
2018-03-24T09:43:48.470Z,28.30
2018-03-24T09:46:22.088Z,28.40
2018-03-24T09:48:56.842Z,25.90
2018-03-24T09:51:30.420Z,24.70
2018-03-24T09:54:04.181Z,23.10
2018-03-24T09:56:37.976Z,22.40
2018-03-24T09:59:12.478Z,22.00
2018-03-24T10:01:49.796Z,20.40
2018-03-24T10:04:25.022Z,20.50
2018-03-24T10:06:58.813Z,20.10
2018-03-24T10:09:33.301Z,20.00
2018-03-24T10:12:07.976Z,20.80
2018-03-24T10:14:42.440Z,19.70
2018-03-24T10:17:17.592Z,20.10
2018-03-24T10:19:52.614Z,19.10
2018-03-24T10:22:50.517Z,17.30
2018-03-24T10:25:32.236Z,17.50
2018-03-24T10:28:13.336Z,17.80
2018-03-24T10:30:48.893Z,17.60
2018-03-24T10:33:23.313Z,15.50
2018-03-24T10:35:56.952Z,15.40
2018-03-24T10:38:31.231Z,12.80
2018-03-24T10:41:05.573Z,10.30
2018-03-24T10:43:40.229Z,10.30
2018-03-24T10:46:14.151Z,12.40
2018-03-24T10:48:48.296Z,10.80
2018-03-24T10:51:21.937Z,10.80
2018-03-24T10:53:57.727Z,9.90
2018-03-24T10:56:32.494Z,10.50
2018-03-24T10:59:08.189Z,8.70
2018-03-24T11:01:43.364Z,8.10
2018-03-24T11:04:19.275Z,8.10
2018-03-24T11:06:54.058Z,7.00
2018-03-24T11:09:33.728Z,7.70
2018-03-24T11:12:08.874Z,7.50
2018-03-24T11:14:44.231Z,8.40
2018-03-24T11:17:18.739Z,9.00
2018-03-24T11:19:53.454Z,5.80
2018-03-24T11:22:27.074Z,3.20
2018-03-24T11:25:00.879Z,1.80
2018-03-24T11:27:35.724Z,3.20
2018-03-24T11:30:09.477Z,1.80
2018-03-24T11:32:43.192Z,2.80
2018-03-24T11:35:17.280Z,3.80
2018-03-24T11:37:50.960Z,5.10
2018-03-24T11:40:25.978Z,6.90
2018-03-24T11:43:02.412Z,6.60
2018-03-24T11:45:38.747Z,4.90
2018-03-24T11:48:12.768Z,6.60
2018-03-24T11:50:47.096Z,8.30
2018-03-24T11:53:20.740Z,6.50
2018-03-24T11:55:54.600Z,6.70
2018-03-24T11:58:29.094Z,7.20
2018-03-24T12:01:05.836Z,6.10
2018-03-24T12:03:40.494Z,6.10
2018-03-24T12:06:14.754Z,5.00
2018-03-24T12:08:49.907Z,4.90
2018-03-24T12:11:24.787Z,4.10
2018-03-24T12:13:58.789Z,4.90
2018-03-24T12:16:32.420Z,4.10
2018-03-24T12:19:06.246Z,4.90
2018-03-24T12:21:40.341Z,4.30
2018-03-24T12:24:16.924Z,4.30
2018-03-24T12:26:52.244Z,3.20
2018-03-24T12:29:26.280Z,3.20
2018-03-24T12:32:00.243Z,2.60
2018-03-24T12:34:35.224Z,1.60
2018-03-24T12:37:10.813Z,1.00
2018-03-24T12:39:45.028Z,1.30
2018-03-24T12:42:20.737Z,1.40
2018-03-24T12:44:55.556Z,2.50
2018-03-24T12:47:31.075Z,2.60
2018-03-24T12:50:10.949Z,2.00
2018-03-24T12:52:46.051Z,1.60
2018-03-24T12:55:19.769Z,1.00
2018-03-24T12:57:53.414Z,1.40
2018-03-24T13:00:27.068Z,1.50
2018-03-24T13:03:00.757Z,2.40
2018-03-24T13:05:34.366Z,1.00
2018-03-24T13:08:08.062Z,1.00
2018-03-24T13:10:41.870Z,1.00
2018-03-24T13:13:15.544Z,1.00
2018-03-24T13:15:51.523Z,1.00
2018-03-24T13:18:26.358Z,1.00
2018-03-24T13:21:00.796Z,1.00
2018-03-24T13:23:35.390Z,1.00
2018-03-24T13:26:09.803Z,1.00
2018-03-24T13:28:43.465Z,1.00
2018-03-24T13:31:17.357Z,1.00
2018-03-24T13:33:51.834Z,1.00
2018-03-24T13:36:25.740Z,1.00
2018-03-24T13:38:59.585Z,1.00
2018-03-24T13:41:33.380Z,1.00
2018-03-24T13:44:07.152Z,1.00
2018-03-24T13:46:42.217Z,1.00
2018-03-24T13:49:17.667Z,1.00
2018-03-24T13:51:51.423Z,1.00
2018-03-24T13:54:27.492Z,1.00
2018-03-24T13:57:01.677Z,1.00
2018-03-24T13:59:36.189Z,1.00
2018-03-24T14:02:10.874Z,1.00
2018-03-24T14:04:47.254Z,1.00
2018-03-24T14:07:22.046Z,1.00
2018-03-24T14:09:57.285Z,1.40
2018-03-24T14:12:31.995Z,1.10
2018-03-24T14:15:07.832Z,1.00
2018-03-24T14:17:43.229Z,2.10
2018-03-24T14:20:19.246Z,2.10
2018-03-24T14:22:52.833Z,2.60
2018-03-24T14:25:26.544Z,2.40
2018-03-24T14:28:00.597Z,2.80
2018-03-24T14:30:34.353Z,2.10
2018-03-24T14:33:08.316Z,1.70
2018-03-24T14:35:43.707Z,1.90
2018-03-24T14:38:17.463Z,1.10
2018-03-24T14:40:51.477Z,1.60
2018-03-24T14:43:25.232Z,2.90
2018-03-24T14:45:58.894Z,1.40
2018-03-24T14:48:33.597Z,1.00
2018-03-24T14:51:07.334Z,1.00
2018-03-24T14:53:41.950Z,1.20
2018-03-24T14:56:15.527Z,1.80
2018-03-24T14:58:49.227Z,1.50
2018-03-24T15:01:24.705Z,1.00
2018-03-24T15:03:58.557Z,1.00
2018-03-24T15:06:35.999Z,1.00
2018-03-24T15:09:10.635Z,2.10
2018-03-24T15:11:45.230Z,2.70
2018-03-24T15:14:20.201Z,2.70
2018-03-24T15:16:56.718Z,1.50
2018-03-24T15:19:30.333Z,1.70
2018-03-24T15:22:05.922Z,2.20
2018-03-24T15:24:40.173Z,2.10
2018-03-24T15:27:14.825Z,2.60
2018-03-24T15:30:00.482Z,2.30
2018-03-24T15:32:46.301Z,3.80
2018-03-24T15:35:36.686Z,4.10
2018-03-24T15:38:13.402Z,3.50
2018-03-24T15:40:49.049Z,2.90
2018-03-24T15:43:23.161Z,3.00
2018-03-24T15:46:05.062Z,4.10
2018-03-24T15:48:39.146Z,3.60
2018-03-24T15:51:14.923Z,4.00
2018-03-24T15:53:51.654Z,4.70
2018-03-24T15:56:30.634Z,5.90
2018-03-24T15:59:05.047Z,6.10
2018-03-24T16:01:44.462Z,5.50
2018-03-24T16:04:18.204Z,5.40
2018-03-24T16:06:52.744Z,4.80
2018-03-24T16:09:27.545Z,5.90
2018-03-24T16:12:03.641Z,5.60
2018-03-24T16:14:37.982Z,6.30
2018-03-24T16:17:12.414Z,5.80
2018-03-24T16:19:46.871Z,5.70
2018-03-24T16:22:20.574Z,5.90
2018-03-24T16:24:54.272Z,5.90
2018-03-24T16:27:28.760Z,6.80
2018-03-24T16:30:02.536Z,6.80
2018-03-24T16:32:36.209Z,5.50
2018-03-24T16:35:11.480Z,6.10
2018-03-24T16:37:46.611Z,8.00
2018-03-24T16:40:21.450Z,7.20
2018-03-24T16:42:57.406Z,8.30
2018-03-24T16:45:31.758Z,8.20
2018-03-24T16:48:05.785Z,8.40
2018-03-24T16:50:39.549Z,8.20
2018-03-24T16:53:14.668Z,8.90
2018-03-24T16:55:49.352Z,8.60
2018-03-24T16:58:23.884Z,9.00
2018-03-24T17:00:58.905Z,9.70
2018-03-24T17:03:32.706Z,9.10
2018-03-24T17:06:06.523Z,9.50
2018-03-24T17:08:40.592Z,9.00
2018-03-24T17:11:15.187Z,8.90
2018-03-24T17:13:50.367Z,9.20
2018-03-24T17:16:24.244Z,9.50
2018-03-24T17:18:57.891Z,10.30
2018-03-24T17:21:31.753Z,10.40
2018-03-24T17:24:05.584Z,10.40
2018-03-24T17:26:41.991Z,10.20
2018-03-24T17:29:16.613Z,10.30
2018-03-24T17:31:50.397Z,10.30
2018-03-24T17:34:25.451Z,10.30
2018-03-24T17:36:59.267Z,10.30
2018-03-24T17:39:33.511Z,10.30
2018-03-24T17:42:09.296Z,11.40
2018-03-24T17:44:43.699Z,11.00
2018-03-24T17:47:18.973Z,10.90
2018-03-24T17:49:54.170Z,11.50
2018-03-24T17:52:29.188Z,11.60
2018-03-24T17:55:04.496Z,12.70
2018-03-24T17:57:42.909Z,12.70
2018-03-24T18:00:17.155Z,12.60
2018-03-24T18:02:51.560Z,13.00
2018-03-24T18:05:26.286Z,13.20
2018-03-24T18:07:59.921Z,13.50
2018-03-24T18:10:33.758Z,14.30
2018-03-24T18:13:08.394Z,14.40
2018-03-24T18:15:42.317Z,14.40
2018-03-24T18:18:16.880Z,14.70
2018-03-24T18:20:50.759Z,14.70
2018-03-24T18:23:25.257Z,15.20
2018-03-24T18:25:59.097Z,15.20
2018-03-24T18:28:32.869Z,15.20
2018-03-24T18:31:06.749Z,15.10
2018-03-24T18:33:41.227Z,16.10
2018-03-24T18:36:15.678Z,16.20
2018-03-24T18:38:53.433Z,16.20
2018-03-24T18:41:27.229Z,16.10
2018-03-24T18:44:05.466Z,16.50
2018-03-24T18:46:42.208Z,17.30
2018-03-24T18:49:15.946Z,17.10
2018-03-24T18:51:51.050Z,17.80
2018-03-24T18:54:26.689Z,17.70
2018-03-24T18:57:05.546Z,17.70
2018-03-24T18:59:39.344Z,18.50
2018-03-24T19:02:14.842Z,19.00
2018-03-24T19:04:48.806Z,19.60
2018-03-24T19:07:25.710Z,20.80
2018-03-24T19:10:00.847Z,21.10
2018-03-24T19:12:35.331Z,21.40
2018-03-24T19:15:10.017Z,22.20
2018-03-24T19:17:45.156Z,23.00
2018-03-24T19:20:18.822Z,24.30
2018-03-24T19:22:54.348Z,24.40
2018-03-24T19:25:33.541Z,24.50
2018-03-24T19:28:08.552Z,25.50
2018-03-24T19:30:47.391Z,25.50
2018-03-24T19:33:21.995Z,26.00
2018-03-24T19:35:57.049Z,26.90
2018-03-24T19:38:32.192Z,27.90
2018-03-24T19:41:06.444Z,28.80
2018-03-24T19:43:40.666Z,29.40
2018-03-24T19:46:16.072Z,31.40
2018-03-24T19:48:53.077Z,31.30
2018-03-24T19:51:35.329Z,32.20
2018-03-24T19:54:09.121Z,33.00
2018-03-24T19:56:44.154Z,34.10
2018-03-24T19:59:18.971Z,33.70
2018-03-24T20:01:53.374Z,33.60
2018-03-24T20:04:28.030Z,33.40
2018-03-24T20:07:04.714Z,32.80
2018-03-24T20:09:41.699Z,32.20
2018-03-24T20:12:18.468Z,32.50
2018-03-24T20:17:58.120Z,33.00
2018-03-24T20:23:40.105Z,33.60
2018-03-24T20:26:18.277Z,33.60
2018-03-24T20:28:52.614Z,33.30
2018-03-24T20:31:27.494Z,33.30
2018-03-24T20:34:02.960Z,34.10
2018-03-24T20:36:36.962Z,33.10
2018-03-24T20:39:17.939Z,33.70
2018-03-24T20:44:42.112Z,34.70
2018-03-24T20:47:18.785Z,34.50
2018-03-24T20:49:53.950Z,34.90
2018-03-24T20:52:31.704Z,36.20
2018-03-24T20:55:07.046Z,36.90
2018-03-24T20:57:40.821Z,37.30
2018-03-24T21:00:21.056Z,38.10
2018-03-24T21:02:55.674Z,38.90
2018-03-24T21:05:29.377Z,38.90
2018-03-24T21:08:06.051Z,39.10
2018-03-24T21:10:41.397Z,39.80
2018-03-24T21:13:22.519Z,41.10
2018-03-24T21:15:56.278Z,41.80
2018-03-24T21:18:32.420Z,42.10
2018-03-24T21:21:06.019Z,42.30
2018-03-24T21:23:40.808Z,42.70
2018-03-24T21:26:16.058Z,43.90
2018-03-24T21:28:50.150Z,44.30
2018-03-24T21:31:24.977Z,44.30
2018-03-24T21:34:01.635Z,44.70
2018-03-24T21:36:35.429Z,45.10
2018-03-24T21:39:09.713Z,45.20
2018-03-24T21:41:44.912Z,45.60
2018-03-24T21:44:19.021Z,45.80
2018-03-24T21:46:53.033Z,45.20
2018-03-24T21:49:27.500Z,44.90
2018-03-24T21:52:01.478Z,44.80
2018-03-24T21:54:35.221Z,45.10
2018-03-24T21:57:10.073Z,45.30
2018-03-24T21:59:45.052Z,44.50
2018-03-24T22:02:18.632Z,44.90
2018-03-24T22:04:53.234Z,45.60
2018-03-24T22:07:27.839Z,47.00
2018-03-24T22:10:02.261Z,47.30
2018-03-24T22:12:35.939Z,48.50
2018-03-24T22:15:12.264Z,49.60
2018-03-24T22:17:46.031Z,51.10
2018-03-24T22:20:20.722Z,51.80
2018-03-24T22:22:56.248Z,54.50
2018-03-24T22:25:31.932Z,54.60
2018-03-24T22:28:06.479Z,56.10
2018-03-24T22:30:40.233Z,56.00
2018-03-24T22:33:13.947Z,57.10
2018-03-24T22:35:49.729Z,58.20
2018-03-24T22:38:23.550Z,60.00
2018-03-24T22:41:00.126Z,61.90
2018-03-24T22:43:36.515Z,63.40
2018-03-24T22:46:10.225Z,63.40
2018-03-24T22:48:44.648Z,64.80
2018-03-24T22:51:18.320Z,66.10
2018-03-24T22:53:52.581Z,66.70
2018-03-24T22:56:27.628Z,68.50
2018-03-24T22:59:04.116Z,70.70
2018-03-24T23:01:37.754Z,71.90
2018-03-24T23:04:11.458Z,74.40
2018-03-24T23:06:45.195Z,75.30
2018-03-24T23:09:19.650Z,76.00
2018-03-24T23:11:54.178Z,78.60
2018-03-24T23:14:29.657Z,80.00
2018-03-24T23:17:04.260Z,80.00
2018-03-24T23:19:38.012Z,80.10
2018-03-24T23:22:11.698Z,80.10
2018-03-24T23:24:46.225Z,81.00
2018-03-24T23:27:19.840Z,82.60
2018-03-24T23:29:54.496Z,83.10
2018-03-24T23:32:28.133Z,83.30
2018-03-24T23:35:01.873Z,83.10
2018-03-24T23:37:36.990Z,85.00
2018-03-24T23:40:10.651Z,85.00
2018-03-24T23:42:46.140Z,84.90
2018-03-24T23:45:20.235Z,84.90
2018-03-24T23:47:54.181Z,86.20
2018-03-24T23:50:28.843Z,87.20
2018-03-24T23:53:03.937Z,87.60
2018-03-24T23:55:37.715Z,87.90
2018-03-24T23:58:12.956Z,87.80
